sensor_id;sensor_type;location;lat;lon;timestamp;pressure;altitude;pressure_sealevel;temperature;humidity
36520;BME280;40269;46.742;9.778;2023-03-01T00:00:25;85525.48;;;-4.94;39.22
36520;BME280;40269;46.742;9.778;2023-03-01T00:02:52;85523.22;;;-5.97;41.51
36520;BME280;40269;46.742;9.778;2023-03-01T00:05:19;85525.77;;;-7.35;43.41
36520;BME280;40269;46.742;9.778;2023-03-01T00:07:46;85525.27;;;-9.54;49.35
36520;BME280;40269;46.742;9.778;2023-03-01T00:10:12;85525.77;;;-10.09;51.54
36520;BME280;40269;46.742;9.778;2023-03-01T00:12:39;85522.58;;;-10.30;53.29
36520;BME280;40269;46.742;9.778;2023-03-01T00:15:07;85521.88;;;-8.52;48.29
36520;BME280;40269;46.742;9.778;2023-03-01T00:17:34;85519.87;;;-8.31;47.09
36520;BME280;40269;46.742;9.778;2023-03-01T00:20:01;85520.85;;;-9.12;48.87
36520;BME280;40269;46.742;9.778;2023-03-01T00:22:28;85522.14;;;-8.83;47.74
36520;BME280;40269;46.742;9.778;2023-03-01T00:24:55;85517.98;;;-7.10;44.03
36520;BME280;40269;46.742;9.778;2023-03-01T00:27:22;85513.57;;;-6.96;43.86
36520;BME280;40269;46.742;9.778;2023-03-01T00:29:50;85510.49;;;-5.63;41.37
36520;BME280;40269;46.742;9.778;2023-03-01T00:32:17;85510.80;;;-5.14;39.87
36520;BME280;40269;46.742;9.778;2023-03-01T00:34:44;85510.95;;;-4.38;38.41
36520;BME280;40269;46.742;9.778;2023-03-01T00:37:11;85509.82;;;-4.78;38.66
36520;BME280;40269;46.742;9.778;2023-03-01T00:39:38;85507.12;;;-5.54;39.50
36520;BME280;40269;46.742;9.778;2023-03-01T00:42:05;85509.50;;;-7.18;42.55
36520;BME280;40269;46.742;9.778;2023-03-01T00:44:32;85513.89;;;-10.04;50.30
36520;BME280;40269;46.742;9.778;2023-03-01T00:46:59;85515.35;;;-9.00;48.95
36520;BME280;40269;46.742;9.778;2023-03-01T00:49:26;85509.41;;;-10.88;53.24
36520;BME280;40269;46.742;9.778;2023-03-01T00:51:53;85503.98;;;-8.30;47.85
36520;BME280;40269;46.742;9.778;2023-03-01T00:54:20;85498.47;;;-5.89;42.29
36520;BME280;40269;46.742;9.778;2023-03-01T00:56:47;85493.75;;;-5.84;40.60
36520;BME280;40269;46.742;9.778;2023-03-01T00:59:14;85495.62;;;-6.41;41.40
36520;BME280;40269;46.742;9.778;2023-03-01T01:01:41;85491.75;;;-7.00;42.19
36520;BME280;40269;46.742;9.778;2023-03-01T01:04:10;85489.92;;;-5.69;40.62
36520;BME280;40269;46.742;9.778;2023-03-01T01:06:41;85489.86;;;-7.34;43.33
36520;BME280;40269;46.742;9.778;2023-03-01T01:09:10;85485.13;;;-7.30;43.28
36520;BME280;40269;46.742;9.778;2023-03-01T01:11:37;85483.47;;;-7.72;45.98
36520;BME280;40269;46.742;9.778;2023-03-01T01:14:04;85484.80;;;-7.96;45.17
36520;BME280;40269;46.742;9.778;2023-03-01T01:16:31;85486.44;;;-10.89;51.47
36520;BME280;40269;46.742;9.778;2023-03-01T01:18:58;85486.75;;;-10.54;52.64
36520;BME280;40269;46.742;9.778;2023-03-01T01:21:25;85481.30;;;-9.44;49.20
36520;BME280;40269;46.742;9.778;2023-03-01T01:23:53;85477.08;;;-7.47;45.31
36520;BME280;40269;46.742;9.778;2023-03-01T01:26:22;85474.67;;;-9.17;48.53
36520;BME280;40269;46.742;9.778;2023-03-01T01:28:50;85471.28;;;-11.29;53.25
36520;BME280;40269;46.742;9.778;2023-03-01T01:31:18;85470.17;;;-10.53;52.82
36520;BME280;40269;46.742;9.778;2023-03-01T01:33:45;85464.86;;;-8.35;47.16
36520;BME280;40269;46.742;9.778;2023-03-01T01:36:12;85466.96;;;-9.05;48.14
36520;BME280;40269;46.742;9.778;2023-03-01T01:38:39;85462.08;;;-7.06;43.93
36520;BME280;40269;46.742;9.778;2023-03-01T01:41:07;85461.47;;;-5.82;40.21
36520;BME280;40269;46.742;9.778;2023-03-01T01:43:35;85463.96;;;-8.05;44.85
36520;BME280;40269;46.742;9.778;2023-03-01T01:46:05;85461.22;;;-8.55;46.46
36520;BME280;40269;46.742;9.778;2023-03-01T01:48:39;85454.89;;;-7.26;44.34
36520;BME280;40269;46.742;9.778;2023-03-01T01:51:11;85452.19;;;-5.21;39.92
36520;BME280;40269;46.742;9.778;2023-03-01T01:53:40;85457.87;;;-8.35;44.52
36520;BME280;40269;46.742;9.778;2023-03-01T01:56:11;85453.81;;;-8.09;45.62
36520;BME280;40269;46.742;9.778;2023-03-01T01:58:41;85446.75;;;-7.26;44.29
36520;BME280;40269;46.742;9.778;2023-03-01T02:01:09;85449.42;;;-7.38;44.89
36520;BME280;40269;46.742;9.778;2023-03-01T02:03:39;85443.04;;;-6.00;41.65
36520;BME280;40269;46.742;9.778;2023-03-01T02:06:13;85444.32;;;-7.24;43.22
36520;BME280;40269;46.742;9.778;2023-03-01T02:08:44;85449.30;;;-8.57;46.26
36520;BME280;40269;46.742;9.778;2023-03-01T02:11:14;85445.94;;;-8.22;45.71
36520;BME280;40269;46.742;9.778;2023-03-01T02:13:42;85435.91;;;-6.58;42.54
36520;BME280;40269;46.742;9.778;2023-03-01T02:16:11;85437.66;;;-9.01;47.10
36520;BME280;40269;46.742;9.778;2023-03-01T02:18:38;85436.22;;;-11.55;53.84
36520;BME280;40269;46.742;9.778;2023-03-01T02:21:15;85433.50;;;-11.40;53.92
36520;BME280;40269;46.742;9.778;2023-03-01T02:23:44;85428.65;;;-7.57;45.64
36520;BME280;40269;46.742;9.778;2023-03-01T02:26:16;85419.07;;;-6.03;41.25
36520;BME280;40269;46.742;9.778;2023-03-01T02:28:45;85420.26;;;-6.88;42.19
36520;BME280;40269;46.742;9.778;2023-03-01T02:31:16;85414.49;;;-5.01;39.25
36520;BME280;40269;46.742;9.778;2023-03-01T02:33:44;85412.15;;;-6.12;39.80
36520;BME280;40269;46.742;9.778;2023-03-01T02:36:15;85410.62;;;-5.47;38.86
36520;BME280;40269;46.742;9.778;2023-03-01T02:38:44;85410.31;;;-5.17;37.81
36520;BME280;40269;46.742;9.778;2023-03-01T02:41:15;85410.19;;;-7.26;41.59
36520;BME280;40269;46.742;9.778;2023-03-01T02:43:42;85411.68;;;-8.15;43.34
36520;BME280;40269;46.742;9.778;2023-03-01T02:46:15;85401.91;;;-5.68;39.48
36520;BME280;40269;46.742;9.778;2023-03-01T02:48:46;85399.92;;;-7.49;42.42
36520;BME280;40269;46.742;9.778;2023-03-01T02:51:26;85394.36;;;-6.58;41.01
36520;BME280;40269;46.742;9.778;2023-03-01T02:54:07;85392.95;;;-6.18;40.06
36520;BME280;40269;46.742;9.778;2023-03-01T02:56:37;85391.73;;;-5.81;38.87
36520;BME280;40269;46.742;9.778;2023-03-01T02:59:04;85389.11;;;-6.95;41.91
36520;BME280;40269;46.742;9.778;2023-03-01T03:01:31;85379.68;;;-6.62;41.10
36520;BME280;40269;46.742;9.778;2023-03-01T03:04:00;85381.38;;;-6.47;39.84
36520;BME280;40269;46.742;9.778;2023-03-01T03:06:27;85381.90;;;-9.15;45.69
36520;BME280;40269;46.742;9.778;2023-03-01T03:08:54;85380.91;;;-9.42;47.14
36520;BME280;40269;46.742;9.778;2023-03-01T03:11:21;85373.97;;;-7.74;44.27
36520;BME280;40269;46.742;9.778;2023-03-01T03:13:48;85373.05;;;-7.57;41.96
36520;BME280;40269;46.742;9.778;2023-03-01T03:16:15;85371.42;;;-6.67;41.46
36520;BME280;40269;46.742;9.778;2023-03-01T03:18:42;85374.96;;;-7.06;42.31
36520;BME280;40269;46.742;9.778;2023-03-01T03:21:10;85371.16;;;-8.16;43.15
36520;BME280;40269;46.742;9.778;2023-03-01T03:23:38;85366.20;;;-6.20;40.66
36520;BME280;40269;46.742;9.778;2023-03-01T03:26:05;85366.94;;;-6.22;40.45
36520;BME280;40269;46.742;9.778;2023-03-01T03:28:34;85370.45;;;-7.40;41.46
36520;BME280;40269;46.742;9.778;2023-03-01T03:31:01;85367.20;;;-7.26;42.15
36520;BME280;40269;46.742;9.778;2023-03-01T03:33:28;85363.71;;;-6.05;39.44
36520;BME280;40269;46.742;9.778;2023-03-01T03:35:55;85363.95;;;-7.34;41.12
36520;BME280;40269;46.742;9.778;2023-03-01T03:38:23;85365.76;;;-5.71;38.69
36520;BME280;40269;46.742;9.778;2023-03-01T03:40:59;85364.39;;;-5.64;38.62
36520;BME280;40269;46.742;9.778;2023-03-01T03:43:26;85363.50;;;-5.67;37.79
36520;BME280;40269;46.742;9.778;2023-03-01T03:45:53;85361.21;;;-6.40;40.53
36520;BME280;40269;46.742;9.778;2023-03-01T03:48:20;85367.76;;;-8.27;44.60
36520;BME280;40269;46.742;9.778;2023-03-01T03:50:49;85368.69;;;-8.62;44.12
36520;BME280;40269;46.742;9.778;2023-03-01T03:53:17;85369.62;;;-8.44;44.64
36520;BME280;40269;46.742;9.778;2023-03-01T03:55:45;85362.30;;;-7.66;42.55
36520;BME280;40269;46.742;9.778;2023-03-01T03:58:11;85360.54;;;-8.08;43.05
36520;BME280;40269;46.742;9.778;2023-03-01T04:00:40;85361.27;;;-7.70;42.68
36520;BME280;40269;46.742;9.778;2023-03-01T04:03:09;85362.54;;;-10.09;48.24
36520;BME280;40269;46.742;9.778;2023-03-01T04:05:36;85358.08;;;-9.61;47.13
36520;BME280;40269;46.742;9.778;2023-03-01T04:08:04;85354.68;;;-7.00;41.18
36520;BME280;40269;46.742;9.778;2023-03-01T04:10:33;85359.68;;;-9.69;46.17
36520;BME280;40269;46.742;9.778;2023-03-01T04:13:01;85355.19;;;-7.00;40.89
36520;BME280;40269;46.742;9.778;2023-03-01T04:15:28;85362.45;;;-10.49;48.02
36520;BME280;40269;46.742;9.778;2023-03-01T04:17:55;85358.71;;;-9.57;48.14
36520;BME280;40269;46.742;9.778;2023-03-01T04:20:25;85356.03;;;-8.88;45.62
36520;BME280;40269;46.742;9.778;2023-03-01T04:22:56;85355.51;;;-9.91;48.20
36520;BME280;40269;46.742;9.778;2023-03-01T04:25:24;85348.24;;;-10.22;49.06
36520;BME280;40269;46.742;9.778;2023-03-01T04:27:52;85345.92;;;-10.54;49.97
36520;BME280;40269;46.742;9.778;2023-03-01T04:30:19;85342.24;;;-8.19;44.20
36520;BME280;40269;46.742;9.778;2023-03-01T04:32:45;85345.58;;;-9.36;46.26
36520;BME280;40269;46.742;9.778;2023-03-01T04:35:13;85345.01;;;-8.71;45.60
36520;BME280;40269;46.742;9.778;2023-03-01T04:37:40;85341.74;;;-8.22;44.59
36520;BME280;40269;46.742;9.778;2023-03-01T04:40:08;85339.19;;;-7.59;42.96
36520;BME280;40269;46.742;9.778;2023-03-01T04:42:35;85342.96;;;-9.33;45.92
36520;BME280;40269;46.742;9.778;2023-03-01T04:45:03;85345.32;;;-8.98;45.32
36520;BME280;40269;46.742;9.778;2023-03-01T04:47:30;85337.13;;;-6.73;41.68
36520;BME280;40269;46.742;9.778;2023-03-01T04:49:57;85335.26;;;-5.65;39.49
36520;BME280;40269;46.742;9.778;2023-03-01T04:52:24;85333.75;;;-6.95;40.50
36520;BME280;40269;46.742;9.778;2023-03-01T04:54:52;85331.53;;;-5.92;38.80
36520;BME280;40269;46.742;9.778;2023-03-01T04:57:18;85335.18;;;-8.17;42.85
36520;BME280;40269;46.742;9.778;2023-03-01T04:59:46;85337.29;;;-7.55;41.44
36520;BME280;40269;46.742;9.778;2023-03-01T05:02:13;85332.74;;;-7.90;41.66
36520;BME280;40269;46.742;9.778;2023-03-01T05:04:40;85325.04;;;-6.81;40.69
36520;BME280;40269;46.742;9.778;2023-03-01T05:07:06;85328.20;;;-9.67;45.47
36520;BME280;40269;46.742;9.778;2023-03-01T05:09:33;85330.40;;;-9.45;45.70
36520;BME280;40269;46.742;9.778;2023-03-01T05:12:00;85325.90;;;-7.72;42.61
36520;BME280;40269;46.742;9.778;2023-03-01T05:14:28;85321.55;;;-8.43;43.48
36520;BME280;40269;46.742;9.778;2023-03-01T05:16:55;85320.76;;;-8.69;43.81
36520;BME280;40269;46.742;9.778;2023-03-01T05:19:22;85316.51;;;-8.17;43.89
36520;BME280;40269;46.742;9.778;2023-03-01T05:21:49;85317.99;;;-10.10;47.08
36520;BME280;40269;46.742;9.778;2023-03-01T05:24:16;85321.48;;;-10.04;47.52
36520;BME280;40269;46.742;9.778;2023-03-01T05:26:43;85321.68;;;-10.31;49.26
36520;BME280;40269;46.742;9.778;2023-03-01T05:29:10;85321.68;;;-11.26;51.71
36520;BME280;40269;46.742;9.778;2023-03-01T05:31:37;85322.03;;;-10.93;50.11
36520;BME280;40269;46.742;9.778;2023-03-01T05:34:05;85321.72;;;-9.58;47.72
36520;BME280;40269;46.742;9.778;2023-03-01T05:36:32;85318.41;;;-9.86;47.27
36520;BME280;40269;46.742;9.778;2023-03-01T05:38:59;85312.54;;;-8.17;44.13
36520;BME280;40269;46.742;9.778;2023-03-01T05:41:26;85314.79;;;-6.98;41.94
36520;BME280;40269;46.742;9.778;2023-03-01T05:43:53;85312.96;;;-6.18;39.75
36520;BME280;40269;46.742;9.778;2023-03-01T05:46:20;85310.85;;;-6.67;40.27
36520;BME280;40269;46.742;9.778;2023-03-01T05:48:47;85309.63;;;-7.16;41.30
36520;BME280;40269;46.742;9.778;2023-03-01T05:51:15;85310.12;;;-9.44;45.43
36520;BME280;40269;46.742;9.778;2023-03-01T05:53:42;85309.76;;;-8.30;44.11
36520;BME280;40269;46.742;9.778;2023-03-01T05:56:09;85310.54;;;-10.20;46.81
36520;BME280;40269;46.742;9.778;2023-03-01T05:58:36;85307.36;;;-8.97;45.89
36520;BME280;40269;46.742;9.778;2023-03-01T06:01:03;85308.52;;;-8.29;43.41
36520;BME280;40269;46.742;9.778;2023-03-01T06:03:30;85308.90;;;-7.11;41.02
36520;BME280;40269;46.742;9.778;2023-03-01T06:05:57;85306.12;;;-6.61;40.53
36520;BME280;40269;46.742;9.778;2023-03-01T06:08:25;85305.22;;;-7.22;40.92
36520;BME280;40269;46.742;9.778;2023-03-01T06:10:52;85307.64;;;-8.18;43.09
36520;BME280;40269;46.742;9.778;2023-03-01T06:13:19;85311.34;;;-8.69;44.12
36520;BME280;40269;46.742;9.778;2023-03-01T06:15:46;85307.68;;;-8.21;43.51
36520;BME280;40269;46.742;9.778;2023-03-01T06:18:13;85304.39;;;-5.92;38.74
36520;BME280;40269;46.742;9.778;2023-03-01T06:20:40;85305.46;;;-5.15;36.90
36520;BME280;40269;46.742;9.778;2023-03-01T06:23:07;85309.42;;;-5.45;37.05
36520;BME280;40269;46.742;9.778;2023-03-01T06:25:34;85308.61;;;-6.81;39.55
36520;BME280;40269;46.742;9.778;2023-03-01T06:28:01;85313.13;;;-5.80;37.89
36520;BME280;40269;46.742;9.778;2023-03-01T06:30:28;85312.73;;;-5.13;37.85
36520;BME280;40269;46.742;9.778;2023-03-01T06:32:56;85317.79;;;-9.13;43.47
36520;BME280;40269;46.742;9.778;2023-03-01T06:35:23;85309.29;;;-7.67;41.19
36520;BME280;40269;46.742;9.778;2023-03-01T06:37:50;85310.35;;;-7.18;40.44
36520;BME280;40269;46.742;9.778;2023-03-01T06:40:18;85313.59;;;-6.90;40.70
36520;BME280;40269;46.742;9.778;2023-03-01T06:42:49;85315.65;;;-5.24;38.04
36520;BME280;40269;46.742;9.778;2023-03-01T06:45:18;85312.99;;;-5.51;38.24
36520;BME280;40269;46.742;9.778;2023-03-01T06:47:46;85321.24;;;-9.15;44.30
36520;BME280;40269;46.742;9.778;2023-03-01T06:50:14;85316.03;;;-6.51;39.76
36520;BME280;40269;46.742;9.778;2023-03-01T06:52:41;85321.44;;;-7.32;40.75
36520;BME280;40269;46.742;9.778;2023-03-01T06:55:09;85323.73;;;-6.83;39.88
36520;BME280;40269;46.742;9.778;2023-03-01T06:57:35;85324.76;;;-8.71;42.86
36520;BME280;40269;46.742;9.778;2023-03-01T07:00:04;85325.55;;;-8.15;43.32
36520;BME280;40269;46.742;9.778;2023-03-01T07:02:31;85328.73;;;-9.21;45.02
36520;BME280;40269;46.742;9.778;2023-03-01T07:04:58;85323.15;;;-5.94;39.37
36520;BME280;40269;46.742;9.778;2023-03-01T07:07:25;85325.86;;;-6.15;39.19
36520;BME280;40269;46.742;9.778;2023-03-01T07:09:52;85327.21;;;-6.85;41.03
36520;BME280;40269;46.742;9.778;2023-03-01T07:12:19;85325.34;;;-8.40;43.01
36520;BME280;40269;46.742;9.778;2023-03-01T07:14:46;85319.36;;;-7.29;41.94
36520;BME280;40269;46.742;9.778;2023-03-01T07:17:14;85317.53;;;-6.26;39.68
36520;BME280;40269;46.742;9.778;2023-03-01T07:19:41;85313.17;;;-6.91;39.77
36520;BME280;40269;46.742;9.778;2023-03-01T07:22:08;85313.28;;;-6.52;40.11
36520;BME280;40269;46.742;9.778;2023-03-01T07:24:35;85311.65;;;-5.54;37.92
36520;BME280;40269;46.742;9.778;2023-03-01T07:27:02;85312.83;;;-5.02;37.77
36520;BME280;40269;46.742;9.778;2023-03-01T07:29:29;85314.58;;;-5.66;38.74
36520;BME280;40269;46.742;9.778;2023-03-01T07:31:56;85314.15;;;-6.93;40.64
36520;BME280;40269;46.742;9.778;2023-03-01T07:34:23;85313.47;;;-5.95;40.00
36520;BME280;40269;46.742;9.778;2023-03-01T07:36:50;85309.64;;;-7.80;42.43
36520;BME280;40269;46.742;9.778;2023-03-01T07:39:17;85307.37;;;-5.12;38.05
36520;BME280;40269;46.742;9.778;2023-03-01T07:41:44;85305.95;;;-6.02;38.83
36520;BME280;40269;46.742;9.778;2023-03-01T07:44:11;85307.52;;;-9.00;45.35
36520;BME280;40269;46.742;9.778;2023-03-01T07:46:38;85298.21;;;-7.99;43.25
36520;BME280;40269;46.742;9.778;2023-03-01T07:49:05;85294.96;;;-9.01;44.62
36520;BME280;40269;46.742;9.778;2023-03-01T07:51:33;85292.86;;;-5.41;38.78
36520;BME280;40269;46.742;9.778;2023-03-01T07:54:00;85293.67;;;-4.93;37.25
36520;BME280;40269;46.742;9.778;2023-03-01T07:56:27;85296.35;;;-3.83;35.56
36520;BME280;40269;46.742;9.778;2023-03-01T07:58:54;85295.16;;;-3.74;35.19
36520;BME280;40269;46.742;9.778;2023-03-01T08:01:21;85296.20;;;-4.47;36.51
36520;BME280;40269;46.742;9.778;2023-03-01T08:03:48;85298.06;;;-7.69;41.59
36520;BME280;40269;46.742;9.778;2023-03-01T08:06:16;85299.48;;;-5.41;38.04
36520;BME280;40269;46.742;9.778;2023-03-01T08:08:43;85298.43;;;-3.78;35.88
36520;BME280;40269;46.742;9.778;2023-03-01T08:11:12;85294.83;;;-4.52;36.43
36520;BME280;40269;46.742;9.778;2023-03-01T08:13:39;85293.74;;;-3.93;36.42
36520;BME280;40269;46.742;9.778;2023-03-01T08:16:09;85296.51;;;-5.49;38.36
36520;BME280;40269;46.742;9.778;2023-03-01T08:18:37;85297.74;;;-5.82;38.77
36520;BME280;40269;46.742;9.778;2023-03-01T08:21:05;85299.29;;;-6.21;40.24
36520;BME280;40269;46.742;9.778;2023-03-01T08:23:33;85293.77;;;-4.64;37.72
36520;BME280;40269;46.742;9.778;2023-03-01T08:26:05;85295.05;;;-5.64;39.24
36520;BME280;40269;46.742;9.778;2023-03-01T08:28:32;85297.05;;;-4.07;37.13
36520;BME280;40269;46.742;9.778;2023-03-01T08:30:59;85296.85;;;-6.12;40.06
36520;BME280;40269;46.742;9.778;2023-03-01T08:33:27;85296.66;;;-5.13;38.75
36520;BME280;40269;46.742;9.778;2023-03-01T08:36:02;85296.58;;;-5.21;39.94
36520;BME280;40269;46.742;9.778;2023-03-01T08:38:29;85295.97;;;-6.19;41.93
36520;BME280;40269;46.742;9.778;2023-03-01T08:41:00;85290.74;;;-5.30;41.87
36520;BME280;40269;46.742;9.778;2023-03-01T08:43:27;85289.28;;;-4.91;41.72
36520;BME280;40269;46.742;9.778;2023-03-01T08:45:54;85290.95;;;-4.00;41.83
36520;BME280;40269;46.742;9.778;2023-03-01T08:48:21;85282.62;;;-2.39;37.81
36520;BME280;40269;46.742;9.778;2023-03-01T08:50:47;85279.63;;;-3.05;38.45
36520;BME280;40269;46.742;9.778;2023-03-01T08:53:14;85277.82;;;-2.73;37.37
36520;BME280;40269;46.742;9.778;2023-03-01T08:55:41;85279.96;;;-4.46;41.81
36520;BME280;40269;46.742;9.778;2023-03-01T08:58:08;85272.21;;;-5.46;46.15
36520;BME280;40269;46.742;9.778;2023-03-01T09:00:35;85271.11;;;-6.95;48.23
36520;BME280;40269;46.742;9.778;2023-03-01T09:03:02;85263.49;;;-4.17;43.88
36520;BME280;40269;46.742;9.778;2023-03-01T09:05:31;85261.06;;;-5.12;45.24
36520;BME280;40269;46.742;9.778;2023-03-01T09:07:58;85251.33;;;-3.19;41.46
36520;BME280;40269;46.742;9.778;2023-03-01T09:10:25;85247.66;;;-0.80;36.92
36520;BME280;40269;46.742;9.778;2023-03-01T09:12:52;85244.68;;;-0.01;34.27
36520;BME280;40269;46.742;9.778;2023-03-01T09:15:19;85239.77;;;0.66;35.55
36520;BME280;40269;46.742;9.778;2023-03-01T09:17:46;85236.49;;;-0.36;35.38
36520;BME280;40269;46.742;9.778;2023-03-01T09:20:13;85234.80;;;-1.08;36.93
36520;BME280;40269;46.742;9.778;2023-03-01T09:22:39;85236.45;;;0.71;33.70
36520;BME280;40269;46.742;9.778;2023-03-01T09:25:06;85233.98;;;-0.56;34.97
36520;BME280;40269;46.742;9.778;2023-03-01T09:27:34;85233.09;;;0.88;34.05
36520;BME280;40269;46.742;9.778;2023-03-01T09:30:00;85233.09;;;0.76;35.40
36520;BME280;40269;46.742;9.778;2023-03-01T09:32:28;85234.49;;;-0.48;37.51
36520;BME280;40269;46.742;9.778;2023-03-01T09:34:56;85232.75;;;-1.28;32.24
36520;BME280;40269;46.742;9.778;2023-03-01T09:37:23;85231.61;;;-0.74;35.59
36520;BME280;40269;46.742;9.778;2023-03-01T09:39:49;85230.90;;;-0.19;30.98
36520;BME280;40269;46.742;9.778;2023-03-01T09:42:16;85228.27;;;-0.75;33.78
36520;BME280;40269;46.742;9.778;2023-03-01T09:44:47;85228.84;;;-0.89;34.07
36520;BME280;40269;46.742;9.778;2023-03-01T09:47:19;85225.25;;;-2.62;34.91
36520;BME280;40269;46.742;9.778;2023-03-01T09:49:56;85219.89;;;-0.44;31.82
36520;BME280;40269;46.742;9.778;2023-03-01T09:52:30;85217.00;;;0.36;31.10
36520;BME280;40269;46.742;9.778;2023-03-01T09:55:00;85211.43;;;0.27;31.75
36520;BME280;40269;46.742;9.778;2023-03-01T09:57:33;85208.51;;;0.50;30.50
36520;BME280;40269;46.742;9.778;2023-03-01T10:00:12;85203.45;;;1.23;29.44
36520;BME280;40269;46.742;9.778;2023-03-01T10:02:45;85197.02;;;-0.98;33.49
36520;BME280;40269;46.742;9.778;2023-03-01T10:05:33;85192.13;;;-0.80;32.10
36520;BME280;40269;46.742;9.778;2023-03-01T10:08:18;85189.02;;;1.46;30.47
36520;BME280;40269;46.742;9.778;2023-03-01T10:10:48;85188.40;;;-0.28;29.72
36520;BME280;40269;46.742;9.778;2023-03-01T10:13:20;85191.51;;;0.71;29.42
36520;BME280;40269;46.742;9.778;2023-03-01T10:15:51;85182.88;;;2.42;28.69
36520;BME280;40269;46.742;9.778;2023-03-01T10:18:22;85181.01;;;2.29;27.62
36520;BME280;40269;46.742;9.778;2023-03-01T10:20:54;85181.19;;;1.98;30.28
36520;BME280;40269;46.742;9.778;2023-03-01T10:23:23;85176.87;;;2.56;27.32
36520;BME280;40269;46.742;9.778;2023-03-01T10:26:02;85178.90;;;2.45;28.56
36520;BME280;40269;46.742;9.778;2023-03-01T10:28:40;85180.06;;;1.46;27.54
36520;BME280;40269;46.742;9.778;2023-03-01T10:31:12;85177.73;;;1.18;28.84
36520;BME280;40269;46.742;9.778;2023-03-01T10:33:41;85185.05;;;0.15;29.14
36520;BME280;40269;46.742;9.778;2023-03-01T10:36:08;85174.01;;;2.20;27.62
36520;BME280;40269;46.742;9.778;2023-03-01T10:38:48;85168.92;;;1.63;28.09
36520;BME280;40269;46.742;9.778;2023-03-01T10:41:16;85167.97;;;1.66;27.23
36520;BME280;40269;46.742;9.778;2023-03-01T10:43:46;85161.41;;;2.52;27.12
36520;BME280;40269;46.742;9.778;2023-03-01T10:46:32;85162.58;;;3.37;28.59
36520;BME280;40269;46.742;9.778;2023-03-01T10:49:14;85156.44;;;2.36;26.68
36520;BME280;40269;46.742;9.778;2023-03-01T10:51:43;85150.96;;;2.37;25.80
36520;BME280;40269;46.742;9.778;2023-03-01T10:54:19;85152.25;;;1.59;28.05
36520;BME280;40269;46.742;9.778;2023-03-01T10:56:49;85145.20;;;3.99;24.38
36520;BME280;40269;46.742;9.778;2023-03-01T10:59:25;85146.21;;;2.46;25.68
36520;BME280;40269;46.742;9.778;2023-03-01T11:02:29;85134.93;;;4.92;24.16
36520;BME280;40269;46.742;9.778;2023-03-01T11:04:59;85125.39;;;5.23;23.55
36520;BME280;40269;46.742;9.778;2023-03-01T11:07:25;85127.26;;;4.50;24.54
36520;BME280;40269;46.742;9.778;2023-03-01T11:09:53;85122.61;;;5.82;22.76
36520;BME280;40269;46.742;9.778;2023-03-01T11:12:21;85112.57;;;7.50;22.68
36520;BME280;40269;46.742;9.778;2023-03-01T11:14:50;85113.47;;;7.03;22.04
36520;BME280;40269;46.742;9.778;2023-03-01T11:17:23;85115.80;;;6.14;22.69
36520;BME280;40269;46.742;9.778;2023-03-01T11:20:01;85110.18;;;6.26;21.68
36520;BME280;40269;46.742;9.778;2023-03-01T11:22:28;85103.24;;;7.62;19.92
36520;BME280;40269;46.742;9.778;2023-03-01T11:24:57;85099.47;;;6.04;21.23
36520;BME280;40269;46.742;9.778;2023-03-01T11:27:27;85099.34;;;5.45;21.43
36520;BME280;40269;46.742;9.778;2023-03-01T11:29:59;85091.28;;;6.55;22.28
36520;BME280;40269;46.742;9.778;2023-03-01T11:32:31;85083.01;;;7.79;20.65
36520;BME280;40269;46.742;9.778;2023-03-01T11:35:05;85077.78;;;6.79;20.30
36520;BME280;40269;46.742;9.778;2023-03-01T11:37:40;85071.71;;;7.05;20.66
36520;BME280;40269;46.742;9.778;2023-03-01T11:40:13;85073.69;;;7.36;19.57
36520;BME280;40269;46.742;9.778;2023-03-01T11:42:50;85070.65;;;8.17;19.89
36520;BME280;40269;46.742;9.778;2023-03-01T11:45:22;85073.21;;;7.70;19.39
36520;BME280;40269;46.742;9.778;2023-03-01T11:48:19;85073.20;;;7.86;21.18
36520;BME280;40269;46.742;9.778;2023-03-01T11:50:52;85073.37;;;5.90;20.62
36520;BME280;40269;46.742;9.778;2023-03-01T11:53:30;85063.94;;;6.37;20.71
36520;BME280;40269;46.742;9.778;2023-03-01T11:56:08;85058.00;;;7.40;20.34
36520;BME280;40269;46.742;9.778;2023-03-01T11:58:49;85054.27;;;8.30;18.92
36520;BME280;40269;46.742;9.778;2023-03-01T12:01:36;85045.85;;;8.15;18.82
36520;BME280;40269;46.742;9.778;2023-03-01T12:06:32;85040.05;;;10.26;20.02
36520;BME280;40269;46.742;9.778;2023-03-01T12:09:17;85041.61;;;9.67;18.40
36520;BME280;40269;46.742;9.778;2023-03-01T12:12:01;85035.94;;;12.17;16.14
36520;BME280;40269;46.742;9.778;2023-03-01T12:14:45;85044.42;;;9.51;17.49
36520;BME280;40269;46.742;9.778;2023-03-01T12:17:40;85043.63;;;7.81;19.91
36520;BME280;40269;46.742;9.778;2023-03-01T12:20:20;85040.04;;;7.69;20.00
36520;BME280;40269;46.742;9.778;2023-03-01T12:23:10;85038.57;;;10.00;18.17
36520;BME280;40269;46.742;9.778;2023-03-01T12:25:45;85034.22;;;11.01;17.76
36520;BME280;40269;46.742;9.778;2023-03-01T12:28:24;85029.06;;;10.79;17.14
36520;BME280;40269;46.742;9.778;2023-03-01T12:31:09;85024.98;;;11.30;18.41
36520;BME280;40269;46.742;9.778;2023-03-01T12:33:52;85020.59;;;9.89;18.71
36520;BME280;40269;46.742;9.778;2023-03-01T12:36:33;85031.69;;;9.29;18.06
36520;BME280;40269;46.742;9.778;2023-03-01T12:39:21;85033.72;;;7.18;19.57
36520;BME280;40269;46.742;9.778;2023-03-01T12:41:56;85027.90;;;8.29;18.99
36520;BME280;40269;46.742;9.778;2023-03-01T12:44:41;85030.22;;;9.59;18.26
36520;BME280;40269;46.742;9.778;2023-03-01T12:47:22;85031.37;;;7.27;19.23
36520;BME280;40269;46.742;9.778;2023-03-01T12:49:56;85027.69;;;7.74;20.20
36520;BME280;40269;46.742;9.778;2023-03-01T12:52:32;85038.25;;;8.56;18.85
36520;BME280;40269;46.742;9.778;2023-03-01T12:55:08;85036.10;;;9.59;18.06
36520;BME280;40269;46.742;9.778;2023-03-01T12:57:40;85027.35;;;10.56;17.88
36520;BME280;40269;46.742;9.778;2023-03-01T13:00:22;85024.35;;;9.93;16.85
36520;BME280;40269;46.742;9.778;2023-03-01T13:02:59;85024.70;;;8.24;18.20
36520;BME280;40269;46.742;9.778;2023-03-01T13:05:36;85025.49;;;9.86;17.52
36520;BME280;40269;46.742;9.778;2023-03-01T13:08:11;85013.62;;;11.51;17.41
36520;BME280;40269;46.742;9.778;2023-03-01T13:10:48;85018.74;;;9.72;17.47
36520;BME280;40269;46.742;9.778;2023-03-01T13:13:20;85018.53;;;9.69;17.43
36520;BME280;40269;46.742;9.778;2023-03-01T13:15:48;85017.94;;;8.40;18.84
36520;BME280;40269;46.742;9.778;2023-03-01T13:18:32;85014.01;;;7.91;18.80